sensor_id;sensor_type;location;lat;lon;timestamp;temperature;humidity
56424;DHT22;42329;43.516;3.684;2022-08-21T00:00:15;23.50;82.20
56424;DHT22;42329;43.516;3.684;2022-08-21T00:02:44;23.50;81.90
56424;DHT22;42329;43.516;3.684;2022-08-21T00:05:11;23.40;82.90
56424;DHT22;42329;43.516;3.684;2022-08-21T00:07:39;23.30;84.00
56424;DHT22;42329;43.516;3.684;2022-08-21T00:10:07;23.20;84.60
56424;DHT22;42329;43.516;3.684;2022-08-21T00:12:34;23.00;85.00
56424;DHT22;42329;43.516;3.684;2022-08-21T00:15:01;23.00;84.80
56424;DHT22;42329;43.516;3.684;2022-08-21T00:17:28;23.00;84.90
56424;DHT22;42329;43.516;3.684;2022-08-21T00:19:55;22.90;84.90
56424;DHT22;42329;43.516;3.684;2022-08-21T00:22:22;22.90;85.30
56424;DHT22;42329;43.516;3.684;2022-08-21T00:24:50;22.80;86.00
56424;DHT22;42329;43.516;3.684;2022-08-21T00:27:17;22.70;86.50
56424;DHT22;42329;43.516;3.684;2022-08-21T00:29:44;22.60;87.10
56424;DHT22;42329;43.516;3.684;2022-08-21T00:32:11;22.50;87.20
56424;DHT22;42329;43.516;3.684;2022-08-21T00:34:38;22.50;87.10
56424;DHT22;42329;43.516;3.684;2022-08-21T00:37:05;22.40;86.70
56424;DHT22;42329;43.516;3.684;2022-08-21T00:39:33;22.40;87.00
56424;DHT22;42329;43.516;3.684;2022-08-21T00:42:01;22.40;87.30
56424;DHT22;42329;43.516;3.684;2022-08-21T00:44:28;22.30;88.30
56424;DHT22;42329;43.516;3.684;2022-08-21T00:46:56;22.20;88.20
56424;DHT22;42329;43.516;3.684;2022-08-21T00:49:23;22.20;88.40
56424;DHT22;42329;43.516;3.684;2022-08-21T00:51:51;22.10;89.20
56424;DHT22;42329;43.516;3.684;2022-08-21T00:54:20;22.10;88.70
56424;DHT22;42329;43.516;3.684;2022-08-21T00:56:50;22.00;89.20
56424;DHT22;42329;43.516;3.684;2022-08-21T00:59:20;21.90;90.00
56424;DHT22;42329;43.516;3.684;2022-08-21T01:01:48;21.80;89.50
56424;DHT22;42329;43.516;3.684;2022-08-21T01:04:15;21.70;89.00
56424;DHT22;42329;43.516;3.684;2022-08-21T01:06:42;21.70;89.40
56424;DHT22;42329;43.516;3.684;2022-08-21T01:09:09;21.70;89.80
56424;DHT22;42329;43.516;3.684;2022-08-21T01:11:36;21.60;89.60
56424;DHT22;42329;43.516;3.684;2022-08-21T01:14:03;21.60;89.90
56424;DHT22;42329;43.516;3.684;2022-08-21T01:16:31;21.50;90.20
56424;DHT22;42329;43.516;3.684;2022-08-21T01:18:59;21.60;90.00
56424;DHT22;42329;43.516;3.684;2022-08-21T01:21:27;21.60;90.00
56424;DHT22;42329;43.516;3.684;2022-08-21T01:23:55;21.60;89.50
56424;DHT22;42329;43.516;3.684;2022-08-21T01:26:23;21.60;89.50
56424;DHT22;42329;43.516;3.684;2022-08-21T01:28:52;21.50;89.90
56424;DHT22;42329;43.516;3.684;2022-08-21T01:31:21;21.50;90.10
56424;DHT22;42329;43.516;3.684;2022-08-21T01:33:49;21.40;90.40
56424;DHT22;42329;43.516;3.684;2022-08-21T01:36:16;21.30;90.60
56424;DHT22;42329;43.516;3.684;2022-08-21T01:38:45;21.20;90.70
56424;DHT22;42329;43.516;3.684;2022-08-21T01:41:12;21.10;90.90
56424;DHT22;42329;43.516;3.684;2022-08-21T01:43:39;21.00;91.00
56424;DHT22;42329;43.516;3.684;2022-08-21T01:46:06;21.10;91.00
56424;DHT22;42329;43.516;3.684;2022-08-21T01:48:34;21.10;90.80
56424;DHT22;42329;43.516;3.684;2022-08-21T01:51:01;21.10;90.70
56424;DHT22;42329;43.516;3.684;2022-08-21T01:53:28;21.20;90.50
56424;DHT22;42329;43.516;3.684;2022-08-21T01:55:56;21.30;90.50
56424;DHT22;42329;43.516;3.684;2022-08-21T01:58:23;21.40;90.40
56424;DHT22;42329;43.516;3.684;2022-08-21T02:00:50;21.40;90.40
56424;DHT22;42329;43.516;3.684;2022-08-21T02:03:17;21.50;90.40
56424;DHT22;42329;43.516;3.684;2022-08-21T02:05:44;21.50;90.40
56424;DHT22;42329;43.516;3.684;2022-08-21T02:08:11;21.50;90.40
56424;DHT22;42329;43.516;3.684;2022-08-21T02:10:38;21.50;90.30
56424;DHT22;42329;43.516;3.684;2022-08-21T02:13:07;21.50;90.30
56424;DHT22;42329;43.516;3.684;2022-08-21T02:15:34;21.50;90.20
56424;DHT22;42329;43.516;3.684;2022-08-21T02:18:02;21.50;90.20
56424;DHT22;42329;43.516;3.684;2022-08-21T02:20:30;21.40;90.30
56424;DHT22;42329;43.516;3.684;2022-08-21T02:22:57;21.40;90.20
56424;DHT22;42329;43.516;3.684;2022-08-21T02:25:24;21.40;90.30
56424;DHT22;42329;43.516;3.684;2022-08-21T02:27:52;21.30;90.40
56424;DHT22;42329;43.516;3.684;2022-08-21T02:30:21;21.40;90.40
56424;DHT22;42329;43.516;3.684;2022-08-21T02:32:48;21.30;90.40
56424;DHT22;42329;43.516;3.684;2022-08-21T02:35:15;21.30;90.60
56424;DHT22;42329;43.516;3.684;2022-08-21T02:37:44;21.40;90.40
56424;DHT22;42329;43.516;3.684;2022-08-21T02:40:11;21.30;90.30
56424;DHT22;42329;43.516;3.684;2022-08-21T02:42:38;21.40;90.10
56424;DHT22;42329;43.516;3.684;2022-08-21T02:45:06;21.30;90.30
56424;DHT22;42329;43.516;3.684;2022-08-21T02:47:34;21.40;90.10
56424;DHT22;42329;43.516;3.684;2022-08-21T02:50:01;21.40;90.30
56424;DHT22;42329;43.516;3.684;2022-08-21T02:52:28;21.40;90.10
56424;DHT22;42329;43.516;3.684;2022-08-21T02:54:55;21.40;90.10
56424;DHT22;42329;43.516;3.684;2022-08-21T02:57:22;21.40;90.70
56424;DHT22;42329;43.516;3.684;2022-08-21T02:59:49;21.30;90.90
56424;DHT22;42329;43.516;3.684;2022-08-21T03:02:16;21.20;90.90
56424;DHT22;42329;43.516;3.684;2022-08-21T03:04:45;21.20;90.90
56424;DHT22;42329;43.516;3.684;2022-08-21T03:07:12;21.10;90.90
56424;DHT22;42329;43.516;3.684;2022-08-21T03:09:38;21.10;90.90
56424;DHT22;42329;43.516;3.684;2022-08-21T03:12:06;21.00;90.90
56424;DHT22;42329;43.516;3.684;2022-08-21T03:14:33;21.00;91.10
56424;DHT22;42329;43.516;3.684;2022-08-21T03:17:00;21.10;91.10
56424;DHT22;42329;43.516;3.684;2022-08-21T03:19:27;21.10;91.00
56424;DHT22;42329;43.516;3.684;2022-08-21T03:21:55;21.10;90.70
56424;DHT22;42329;43.516;3.684;2022-08-21T03:24:22;21.00;90.70
56424;DHT22;42329;43.516;3.684;2022-08-21T03:26:49;21.10;90.20
56424;DHT22;42329;43.516;3.684;2022-08-21T03:29:16;21.20;90.10
56424;DHT22;42329;43.516;3.684;2022-08-21T03:31:43;21.20;89.90
56424;DHT22;42329;43.516;3.684;2022-08-21T03:34:10;21.20;90.10
56424;DHT22;42329;43.516;3.684;2022-08-21T03:36:37;21.20;90.20
56424;DHT22;42329;43.516;3.684;2022-08-21T03:39:06;21.20;90.30
56424;DHT22;42329;43.516;3.684;2022-08-21T03:41:33;21.20;90.50
56424;DHT22;42329;43.516;3.684;2022-08-21T03:44:00;21.10;90.40
56424;DHT22;42329;43.516;3.684;2022-08-21T03:46:27;21.10;90.30
56424;DHT22;42329;43.516;3.684;2022-08-21T03:48:54;21.10;90.20
56424;DHT22;42329;43.516;3.684;2022-08-21T03:51:21;21.00;90.20
56424;DHT22;42329;43.516;3.684;2022-08-21T03:53:48;21.10;90.20
56424;DHT22;42329;43.516;3.684;2022-08-21T03:56:16;21.10;90.10
56424;DHT22;42329;43.516;3.684;2022-08-21T03:58:43;21.20;89.20
56424;DHT22;42329;43.516;3.684;2022-08-21T04:01:11;21.20;88.40
56424;DHT22;42329;43.516;3.684;2022-08-21T04:03:38;21.30;88.60
56424;DHT22;42329;43.516;3.684;2022-08-21T04:06:05;21.40;87.70
56424;DHT22;42329;43.516;3.684;2022-08-21T04:08:32;21.50;87.40
56424;DHT22;42329;43.516;3.684;2022-08-21T04:11:00;21.50;87.00
56424;DHT22;42329;43.516;3.684;2022-08-21T04:13:28;21.60;87.00
56424;DHT22;42329;43.516;3.684;2022-08-21T04:15:56;21.60;86.70
56424;DHT22;42329;43.516;3.684;2022-08-21T04:18:23;21.60;86.40
56424;DHT22;42329;43.516;3.684;2022-08-21T04:20:51;21.70;86.30
56424;DHT22;42329;43.516;3.684;2022-08-21T04:23:19;21.70;86.00
56424;DHT22;42329;43.516;3.684;2022-08-21T04:25:46;21.70;85.60
56424;DHT22;42329;43.516;3.684;2022-08-21T04:28:13;21.80;85.50
56424;DHT22;42329;43.516;3.684;2022-08-21T04:30:41;21.80;85.60
56424;DHT22;42329;43.516;3.684;2022-08-21T04:33:08;21.90;85.30
56424;DHT22;42329;43.516;3.684;2022-08-21T04:35:35;21.90;85.50
56424;DHT22;42329;43.516;3.684;2022-08-21T04:38:02;21.90;85.60
56424;DHT22;42329;43.516;3.684;2022-08-21T04:40:29;21.90;85.50
56424;DHT22;42329;43.516;3.684;2022-08-21T04:42:57;22.00;85.20
56424;DHT22;42329;43.516;3.684;2022-08-21T04:45:26;22.00;85.00
56424;DHT22;42329;43.516;3.684;2022-08-21T04:47:55;22.00;84.70
56424;DHT22;42329;43.516;3.684;2022-08-21T04:50:24;22.00;84.60
56424;DHT22;42329;43.516;3.684;2022-08-21T04:52:53;22.00;84.30
56424;DHT22;42329;43.516;3.684;2022-08-21T04:55:20;22.00;84.20
56424;DHT22;42329;43.516;3.684;2022-08-21T04:57:49;22.10;84.70
56424;DHT22;42329;43.516;3.684;2022-08-21T05:00:19;22.10;84.70
56424;DHT22;42329;43.516;3.684;2022-08-21T05:02:46;22.10;84.60
56424;DHT22;42329;43.516;3.684;2022-08-21T05:05:16;22.00;84.90
56424;DHT22;42329;43.516;3.684;2022-08-21T05:07:43;22.10;83.90
56424;DHT22;42329;43.516;3.684;2022-08-21T05:10:11;22.10;84.70
56424;DHT22;42329;43.516;3.684;2022-08-21T05:12:39;22.10;84.90
56424;DHT22;42329;43.516;3.684;2022-08-21T05:15:07;22.00;84.90
56424;DHT22;42329;43.516;3.684;2022-08-21T05:17:34;22.00;85.20
56424;DHT22;42329;43.516;3.684;2022-08-21T05:20:01;22.00;85.50
56424;DHT22;42329;43.516;3.684;2022-08-21T05:22:30;22.00;85.90
56424;DHT22;42329;43.516;3.684;2022-08-21T05:24:57;22.00;85.90
56424;DHT22;42329;43.516;3.684;2022-08-21T05:27:24;22.00;86.10
56424;DHT22;42329;43.516;3.684;2022-08-21T05:29:51;21.90;86.20
56424;DHT22;42329;43.516;3.684;2022-08-21T05:32:18;21.90;86.60
56424;DHT22;42329;43.516;3.684;2022-08-21T05:34:45;21.90;86.80
56424;DHT22;42329;43.516;3.684;2022-08-21T05:37:12;21.80;86.90
56424;DHT22;42329;43.516;3.684;2022-08-21T05:39:40;21.80;87.50
56424;DHT22;42329;43.516;3.684;2022-08-21T05:42:07;21.80;87.50
56424;DHT22;42329;43.516;3.684;2022-08-21T05:44:34;21.80;87.60
56424;DHT22;42329;43.516;3.684;2022-08-21T05:47:02;21.80;87.60
56424;DHT22;42329;43.516;3.684;2022-08-21T05:49:29;21.90;87.40
56424;DHT22;42329;43.516;3.684;2022-08-21T05:51:56;21.90;87.20
56424;DHT22;42329;43.516;3.684;2022-08-21T05:54:23;21.90;87.10
56424;DHT22;42329;43.516;3.684;2022-08-21T05:56:52;22.00;87.30
56424;DHT22;42329;43.516;3.684;2022-08-21T05:59:18;22.10;87.50
56424;DHT22;42329;43.516;3.684;2022-08-21T06:01:46;22.10;87.30
56424;DHT22;42329;43.516;3.684;2022-08-21T06:04:13;22.10;87.20
56424;DHT22;42329;43.516;3.684;2022-08-21T06:06:40;22.20;87.20
56424;DHT22;42329;43.516;3.684;2022-08-21T06:09:07;22.30;87.50
56424;DHT22;42329;43.516;3.684;2022-08-21T06:11:34;22.40;87.70
56424;DHT22;42329;43.516;3.684;2022-08-21T06:14:02;22.50;87.80
56424;DHT22;42329;43.516;3.684;2022-08-21T06:16:31;22.60;88.30
56424;DHT22;42329;43.516;3.684;2022-08-21T06:18:59;22.70;88.10
56424;DHT22;42329;43.516;3.684;2022-08-21T06:21:26;22.80;88.60
56424;DHT22;42329;43.516;3.684;2022-08-21T06:23:53;22.80;87.40
56424;DHT22;42329;43.516;3.684;2022-08-21T06:26:21;22.90;87.80
56424;DHT22;42329;43.516;3.684;2022-08-21T06:28:50;23.10;87.00
56424;DHT22;42329;43.516;3.684;2022-08-21T06:31:19;23.20;86.70
56424;DHT22;42329;43.516;3.684;2022-08-21T06:33:46;23.30;85.90
56424;DHT22;42329;43.516;3.684;2022-08-21T06:36:14;23.30;85.30
56424;DHT22;42329;43.516;3.684;2022-08-21T06:38:41;23.40;84.90
56424;DHT22;42329;43.516;3.684;2022-08-21T06:41:08;23.50;83.90
56424;DHT22;42329;43.516;3.684;2022-08-21T06:43:35;23.60;83.50
56424;DHT22;42329;43.516;3.684;2022-08-21T06:46:02;23.80;83.50
56424;DHT22;42329;43.516;3.684;2022-08-21T06:48:31;23.90;83.10
56424;DHT22;42329;43.516;3.684;2022-08-21T06:50:59;24.10;82.80
56424;DHT22;42329;43.516;3.684;2022-08-21T06:53:26;24.20;82.20
56424;DHT22;42329;43.516;3.684;2022-08-21T06:55:53;24.40;82.30
56424;DHT22;42329;43.516;3.684;2022-08-21T06:58:20;24.50;81.90
56424;DHT22;42329;43.516;3.684;2022-08-21T07:00:48;24.60;81.80
56424;DHT22;42329;43.516;3.684;2022-08-21T07:03:17;24.80;81.70
56424;DHT22;42329;43.516;3.684;2022-08-21T07:05:46;24.90;81.40
56424;DHT22;42329;43.516;3.684;2022-08-21T07:08:13;25.00;81.30
56424;DHT22;42329;43.516;3.684;2022-08-21T07:10:40;25.10;80.90
56424;DHT22;42329;43.516;3.684;2022-08-21T07:13:07;25.30;80.60
56424;DHT22;42329;43.516;3.684;2022-08-21T07:15:34;25.40;80.30
56424;DHT22;42329;43.516;3.684;2022-08-21T07:18:01;25.60;80.50
56424;DHT22;42329;43.516;3.684;2022-08-21T07:20:28;25.80;78.60
56424;DHT22;42329;43.516;3.684;2022-08-21T07:22:58;26.00;79.30
56424;DHT22;42329;43.516;3.684;2022-08-21T07:25:26;26.20;78.40
56424;DHT22;42329;43.516;3.684;2022-08-21T07:27:53;26.40;78.50
56424;DHT22;42329;43.516;3.684;2022-08-21T07:30:20;26.50;76.30
56424;DHT22;42329;43.516;3.684;2022-08-21T07:32:47;26.70;77.70
56424;DHT22;42329;43.516;3.684;2022-08-21T07:35:17;26.80;77.30
56424;DHT22;42329;43.516;3.684;2022-08-21T07:37:44;26.80;76.80
56424;DHT22;42329;43.516;3.684;2022-08-21T07:40:13;26.90;76.40
56424;DHT22;42329;43.516;3.684;2022-08-21T07:42:41;27.00;76.30
56424;DHT22;42329;43.516;3.684;2022-08-21T07:45:08;27.00;74.90
56424;DHT22;42329;43.516;3.684;2022-08-21T07:47:36;27.10;75.90
56424;DHT22;42329;43.516;3.684;2022-08-21T07:50:04;27.10;75.60
56424;DHT22;42329;43.516;3.684;2022-08-21T07:52:31;27.20;74.70
56424;DHT22;42329;43.516;3.684;2022-08-21T07:54:59;27.30;75.60
56424;DHT22;42329;43.516;3.684;2022-08-21T07:57:27;27.30;75.10
56424;DHT22;42329;43.516;3.684;2022-08-21T07:59:55;27.30;75.00
56424;DHT22;42329;43.516;3.684;2022-08-21T08:02:22;27.30;74.80
56424;DHT22;42329;43.516;3.684;2022-08-21T08:04:50;27.20;74.80
56424;DHT22;42329;43.516;3.684;2022-08-21T08:07:17;27.20;75.10
56424;DHT22;42329;43.516;3.684;2022-08-21T08:09:44;27.20;74.70
56424;DHT22;42329;43.516;3.684;2022-08-21T08:12:11;27.20;75.00
56424;DHT22;42329;43.516;3.684;2022-08-21T08:14:39;27.20;75.60
56424;DHT22;42329;43.516;3.684;2022-08-21T08:17:06;27.20;75.20
56424;DHT22;42329;43.516;3.684;2022-08-21T08:19:33;27.20;75.00
56424;DHT22;42329;43.516;3.684;2022-08-21T08:22:00;27.20;75.00
56424;DHT22;42329;43.516;3.684;2022-08-21T08:24:27;27.20;74.10
56424;DHT22;42329;43.516;3.684;2022-08-21T08:26:54;27.30;75.70
56424;DHT22;42329;43.516;3.684;2022-08-21T08:29:22;27.40;75.70
56424;DHT22;42329;43.516;3.684;2022-08-21T08:31:51;27.40;74.80
56424;DHT22;42329;43.516;3.684;2022-08-21T08:34:17;27.50;74.80
56424;DHT22;42329;43.516;3.684;2022-08-21T08:36:47;27.50;73.80
56424;DHT22;42329;43.516;3.684;2022-08-21T08:39:14;27.60;74.70
56424;DHT22;42329;43.516;3.684;2022-08-21T08:41:42;27.70;73.50
56424;DHT22;42329;43.516;3.684;2022-08-21T08:44:10;27.70;71.90
56424;DHT22;42329;43.516;3.684;2022-08-21T08:46:38;27.90;71.20
56424;DHT22;42329;43.516;3.684;2022-08-21T08:49:08;27.90;72.80
56424;DHT22;42329;43.516;3.684;2022-08-21T08:51:38;28.00;69.70
56424;DHT22;42329;43.516;3.684;2022-08-21T08:54:07;28.10;68.00
56424;DHT22;42329;43.516;3.684;2022-08-21T08:56:35;28.10;69.70
56424;DHT22;42329;43.516;3.684;2022-08-21T08:59:05;28.20;69.10
56424;DHT22;42329;43.516;3.684;2022-08-21T09:01:34;28.30;67.90
56424;DHT22;42329;43.516;3.684;2022-08-21T09:04:01;28.30;66.70
56424;DHT22;42329;43.516;3.684;2022-08-21T09:06:32;28.40;68.20
56424;DHT22;42329;43.516;3.684;2022-08-21T09:09:02;28.40;69.60
56424;DHT22;42329;43.516;3.684;2022-08-21T09:11:36;28.50;68.60
56424;DHT22;42329;43.516;3.684;2022-08-21T09:14:05;28.60;67.80
56424;DHT22;42329;43.516;3.684;2022-08-21T09:16:37;28.60;67.60
56424;DHT22;42329;43.516;3.684;2022-08-21T09:19:09;28.70;67.10
56424;DHT22;42329;43.516;3.684;2022-08-21T09:21:41;28.70;66.80
56424;DHT22;42329;43.516;3.684;2022-08-21T09:24:16;28.80;65.70
56424;DHT22;42329;43.516;3.684;2022-08-21T09:26:47;28.90;67.30
56424;DHT22;42329;43.516;3.684;2022-08-21T09:29:15;28.90;66.90
56424;DHT22;42329;43.516;3.684;2022-08-21T09:31:44;29.10;68.20
56424;DHT22;42329;43.516;3.684;2022-08-21T09:34:11;29.20;66.70
56424;DHT22;42329;43.516;3.684;2022-08-21T09:36:41;29.20;67.30
56424;DHT22;42329;43.516;3.684;2022-08-21T09:39:09;29.20;66.90
56424;DHT22;42329;43.516;3.684;2022-08-21T09:41:37;29.20;65.90
56424;DHT22;42329;43.516;3.684;2022-08-21T09:44:06;29.30;65.70
56424;DHT22;42329;43.516;3.684;2022-08-21T09:46:34;29.30;65.80
56424;DHT22;42329;43.516;3.684;2022-08-21T09:49:02;29.40;66.20
56424;DHT22;42329;43.516;3.684;2022-08-21T09:51:30;29.40;65.40
56424;DHT22;42329;43.516;3.684;2022-08-21T09:54:07;29.50;65.80
56424;DHT22;42329;43.516;3.684;2022-08-21T09:56:38;29.50;65.20
56424;DHT22;42329;43.516;3.684;2022-08-21T09:59:25;29.50;65.00
56424;DHT22;42329;43.516;3.684;2022-08-21T10:01:56;29.50;62.90
56424;DHT22;42329;43.516;3.684;2022-08-21T10:04:28;29.50;64.70
56424;DHT22;42329;43.516;3.684;2022-08-21T10:07:05;29.40;64.20
56424;DHT22;42329;43.516;3.684;2022-08-21T10:09:34;29.40;64.80
56424;DHT22;42329;43.516;3.684;2022-08-21T10:12:06;29.40;64.10
56424;DHT22;42329;43.516;3.684;2022-08-21T10:14:39;29.40;64.80
56424;DHT22;42329;43.516;3.684;2022-08-21T10:17:12;29.50;65.40
56424;DHT22;42329;43.516;3.684;2022-08-21T10:19:42;29.60;66.10
56424;DHT22;42329;43.516;3.684;2022-08-21T10:22:15;29.70;64.50
56424;DHT22;42329;43.516;3.684;2022-08-21T10:24:48;29.80;64.00
56424;DHT22;42329;43.516;3.684;2022-08-21T10:27:20;29.90;64.10
56424;DHT22;42329;43.516;3.684;2022-08-21T10:29:51;30.10;63.70
56424;DHT22;42329;43.516;3.684;2022-08-21T10:32:24;30.10;62.70
56424;DHT22;42329;43.516;3.684;2022-08-21T10:34:56;30.20;63.10
56424;DHT22;42329;43.516;3.684;2022-08-21T10:37:35;30.30;63.10
56424;DHT22;42329;43.516;3.684;2022-08-21T10:40:11;30.20;62.60
56424;DHT22;42329;43.516;3.684;2022-08-21T10:42:45;30.20;62.20
56424;DHT22;42329;43.516;3.684;2022-08-21T10:45:16;30.20;62.00
56424;DHT22;42329;43.516;3.684;2022-08-21T10:47:47;30.10;63.50
56424;DHT22;42329;43.516;3.684;2022-08-21T10:50:17;30.00;64.10
56424;DHT22;42329;43.516;3.684;2022-08-21T10:52:52;30.10;63.10
56424;DHT22;42329;43.516;3.684;2022-08-21T10:55:24;30.20;62.60
56424;DHT22;42329;43.516;3.684;2022-08-21T10:57:54;30.20;60.90
56424;DHT22;42329;43.516;3.684;2022-08-21T11:00:23;30.40;58.80
56424;DHT22;42329;43.516;3.684;2022-08-21T11:02:55;30.50;60.90
56424;DHT22;42329;43.516;3.684;2022-08-21T11:05:24;30.60;60.00
56424;DHT22;42329;43.516;3.684;2022-08-21T11:07:53;30.70;59.90
56424;DHT22;42329;43.516;3.684;2022-08-21T11:10:21;30.80;58.10
56424;DHT22;42329;43.516;3.684;2022-08-21T11:12:52;30.90;58.50
56424;DHT22;42329;43.516;3.684;2022-08-21T11:15:25;31.00;56.70
56424;DHT22;42329;43.516;3.684;2022-08-21T11:17:54;31.00;58.10
56424;DHT22;42329;43.516;3.684;2022-08-21T11:20:26;31.00;57.70
56424;DHT22;42329;43.516;3.684;2022-08-21T11:22:56;31.10;58.90
56424;DHT22;42329;43.516;3.684;2022-08-21T11:25:26;31.10;59.30
56424;DHT22;42329;43.516;3.684;2022-08-21T11:27:56;31.20;58.10
56424;DHT22;42329;43.516;3.684;2022-08-21T11:30:26;31.30;56.50
56424;DHT22;42329;43.516;3.684;2022-08-21T11:33:01;31.40;58.20
56424;DHT22;42329;43.516;3.684;2022-08-21T11:35:33;31.40;55.80
56424;DHT22;42329;43.516;3.684;2022-08-21T11:38:06;31.40;57.10
56424;DHT22;42329;43.516;3.684;2022-08-21T11:40:44;31.40;56.90
56424;DHT22;42329;43.516;3.684;2022-08-21T11:43:16;31.40;55.30
56424;DHT22;42329;43.516;3.684;2022-08-21T11:45:45;31.50;55.80
56424;DHT22;42329;43.516;3.684;2022-08-21T11:48:15;31.50;57.20
56424;DHT22;42329;43.516;3.684;2022-08-21T11:50:49;31.50;56.00
56424;DHT22;42329;43.516;3.684;2022-08-21T11:53:18;31.50;56.00
56424;DHT22;42329;43.516;3.684;2022-08-21T11:55:47;31.60;54.60
56424;DHT22;42329;43.516;3.684;2022-08-21T11:58:17;31.60;54.60
56424;DHT22;42329;43.516;3.684;2022-08-21T12:00:49;31.70;53.10
56424;DHT22;42329;43.516;3.684;2022-08-21T12:03:17;31.70;53.30
56424;DHT22;42329;43.516;3.684;2022-08-21T12:05:52;31.80;53.60
56424;DHT22;42329;43.516;3.684;2022-08-21T12:08:26;31.70;52.40
56424;DHT22;42329;43.516;3.684;2022-08-21T12:10:59;31.60;52.60
56424;DHT22;42329;43.516;3.684;2022-08-21T12:13:29;31.70;53.40
56424;DHT22;42329;43.516;3.684;2022-08-21T12:16:04;31.70;54.10
56424;DHT22;42329;43.516;3.684;2022-08-21T12:18:32;31.70;53.40
56424;DHT22;42329;43.516;3.684;2022-08-21T12:21:01;31.80;51.50
56424;DHT22;42329;43.516;3.684;2022-08-21T12:23:30;31.90;52.30
56424;DHT22;42329;43.516;3.684;2022-08-21T12:26:02;31.90;52.00
56424;DHT22;42329;43.516;3.684;2022-08-21T12:28:32;31.90;50.80
56424;DHT22;42329;43.516;3.684;2022-08-21T12:30:59;31.70;51.00
56424;DHT22;42329;43.516;3.684;2022-08-21T12:33:28;31.70;51.20
56424;DHT22;42329;43.516;3.684;2022-08-21T12:36:02;31.60;52.60
56424;DHT22;42329;43.516;3.684;2022-08-21T12:38:32;31.50;52.30
56424;DHT22;42329;43.516;3.684;2022-08-21T12:41:00;31.40;52.90
56424;DHT22;42329;43.516;3.684;2022-08-21T12:43:29;31.30;52.80
56424;DHT22;42329;43.516;3.684;2022-08-21T12:45:58;31.30;53.30
56424;DHT22;42329;43.516;3.684;2022-08-21T12:48:29;31.20;53.60
56424;DHT22;42329;43.516;3.684;2022-08-21T12:50:58;31.10;52.50
56424;DHT22;42329;43.516;3.684;2022-08-21T12:53:34;31.10;52.80
56424;DHT22;42329;43.516;3.684;2022-08-21T12:56:02;31.20;53.50
56424;DHT22;42329;43.516;3.684;2022-08-21T12:58:30;31.30;54.10
56424;DHT22;42329;43.516;3.684;2022-08-21T13:01:01;31.30;53.10
56424;DHT22;42329;43.516;3.684;2022-08-21T13:03:28;31.30;53.20
56424;DHT22;42329;43.516;3.684;2022-08-21T13:05:56;31.30;53.30
56424;DHT22;42329;43.516;3.684;2022-08-21T13:08:24;31.30;53.90
56424;DHT22;42329;43.516;3.684;2022-08-21T13:10:56;31.30;53.80
56424;DHT22;42329;43.516;3.684;2022-08-21T13:13:24;31.30;53.80
56424;DHT22;42329;43.516;3.684;2022-08-21T13:15:56;31.30;52.90
56424;DHT22;42329;43.516;3.684;2022-08-21T13:18:28;31.20;53.00
56424;DHT22;42329;43.516;3.684;2022-08-21T13:21:03;31.20;52.90
56424;DHT22;42329;43.516;3.684;2022-08-21T13:23:30;31.10;51.90
56424;DHT22;42329;43.516;3.684;2022-08-21T13:25:57;31.00;50.60
56424;DHT22;42329;43.516;3.684;2022-08-21T13:28:31;31.00;51.40
56424;DHT22;42329;43.516;3.684;2022-08-21T13:30:58;31.00;51.90
56424;DHT22;42329;43.516;3.684;2022-08-21T13:33:29;31.00;52.10
56424;DHT22;42329;43.516;3.684;2022-08-21T13:36:03;31.00;51.20
56424;DHT22;42329;43.516;3.684;2022-08-21T13:38:31;30.90;50.90
56424;DHT22;42329;43.516;3.684;2022-08-21T13:41:01;30.80;51.20
56424;DHT22;42329;43.516;3.684;2022-08-21T13:43:31;30.80;50.80
56424;DHT22;42329;43.516;3.684;2022-08-21T13:45:59;30.80;50.30
56424;DHT22;42329;43.516;3.684;2022-08-21T13:48:29;30.80;50.80
56424;DHT22;42329;43.516;3.684;2022-08-21T13:50:58;30.80;50.80
56424;DHT22;42329;43.516;3.684;2022-08-21T13:53:28;30.80;51.50
56424;DHT22;42329;43.516;3.684;2022-08-21T13:55:55;30.70;51.70
56424;DHT22;42329;43.516;3.684;2022-08-21T13:58:25;30.70;51.10
56424;DHT22;42329;43.516;3.684;2022-08-21T14:00:53;30.70;51.50
56424;DHT22;42329;43.516;3.684;2022-08-21T14:03:25;30.70;51.70
56424;DHT22;42329;43.516;3.684;2022-08-21T14:05:54;30.70;52.40
56424;DHT22;42329;43.516;3.684;2022-08-21T14:08:23;30.70;51.00
56424;DHT22;42329;43.516;3.684;2022-08-21T14:10:52;30.70;51.20
56424;DHT22;42329;43.516;3.684;2022-08-21T14:13:24;30.70;51.40
56424;DHT22;42329;43.516;3.684;2022-08-21T14:15:54;30.70;51.50
56424;DHT22;42329;43.516;3.684;2022-08-21T14:18:21;30.70;52.10
56424;DHT22;42329;43.516;3.684;2022-08-21T14:20:50;30.70;51.90
56424;DHT22;42329;43.516;3.684;2022-08-21T14:23:24;30.70;52.30
56424;DHT22;42329;43.516;3.684;2022-08-21T14:25:51;30.70;51.10
56424;DHT22;42329;43.516;3.684;2022-08-21T14:28:19;30.70;51.50
56424;DHT22;42329;43.516;3.684;2022-08-21T14:30:49;30.80;51.60
56424;DHT22;42329;43.516;3.684;2022-08-21T14:33:18;30.80;51.90
56424;DHT22;42329;43.516;3.684;2022-08-21T14:35:47;30.90;51.80
56424;DHT22;42329;43.516;3.684;2022-08-21T14:38:14;30.90;52.50
56424;DHT22;42329;43.516;3.684;2022-08-21T14:40:43;30.90;53.40
56424;DHT22;42329;43.516;3.684;2022-08-21T14:43:11;31.00;52.40
56424;DHT22;42329;43.516;3.684;2022-08-21T14:45:38;31.00;51.90
56424;DHT22;42329;43.516;3.684;2022-08-21T14:48:06;31.00;51.30
56424;DHT22;42329;43.516;3.684;2022-08-21T14:50:33;31.00;52.30
56424;DHT22;42329;43.516;3.684;2022-08-21T14:53:01;30.90;52.20
56424;DHT22;42329;43.516;3.684;2022-08-21T14:55:29;30.90;51.90
56424;DHT22;42329;43.516;3.684;2022-08-21T14:58:18;30.80;52.20
56424;DHT22;42329;43.516;3.684;2022-08-21T15:00:45;30.80;52.90
56424;DHT22;42329;43.516;3.684;2022-08-21T15:03:12;30.80;52.90
56424;DHT22;42329;43.516;3.684;2022-08-21T15:05:39;30.70;53.10
56424;DHT22;42329;43.516;3.684;2022-08-21T15:08:06;30.70;52.70
56424;DHT22;42329;43.516;3.684;2022-08-21T15:10:33;30.70;52.90
56424;DHT22;42329;43.516;3.684;2022-08-21T15:13:00;30.70;52.90
56424;DHT22;42329;43.516;3.684;2022-08-21T15:15:29;30.60;53.50
56424;DHT22;42329;43.516;3.684;2022-08-21T15:17:58;30.60;53.00
56424;DHT22;42329;43.516;3.684;2022-08-21T15:20:25;30.70;52.90
56424;DHT22;42329;43.516;3.684;2022-08-21T15:22:52;30.70;53.20
56424;DHT22;42329;43.516;3.684;2022-08-21T15:25:19;30.70;53.50
56424;DHT22;42329;43.516;3.684;2022-08-21T15:27:46;30.70;52.20
56424;DHT22;42329;43.516;3.684;2022-08-21T15:30:13;30.80;52.90
56424;DHT22;42329;43.516;3.684;2022-08-21T15:32:41;30.80;52.60
56424;DHT22;42329;43.516;3.684;2022-08-21T15:35:08;30.70;52.70
56424;DHT22;42329;43.516;3.684;2022-08-21T15:37:35;30.70;53.20